Time;durP1;ratioP1;P1;durP2;ratioP2;P2;SDS_P1;SDS_P2;PMS_P1;PMS_P2;Temp;Humidity;BMP_temperature;BMP_pressure;BME280_temperature;BME280_humidity;BME280_pressure;Samples;Min_cycle;Max_cycle;Signal;HPM_P1;HPM_P2
2021/08/18 00:02:19;;;;;;;7.15;5.78;;;;;;;16.98;80.33;95584.77;1786557;80;20999;-59
2021/08/18 00:04:45;;;;;;;9.65;6.53;;;;;;;17.13;80.28;95581.91;1786736;80;21493;-62
2021/08/18 00:07:12;;;;;;;7.60;6.80;;;;;;;17.13;80.28;95581.91;1787127;80;20960;-59
2021/08/18 00:09:38;;;;;;;8.95;6.58;;;;;;;17.19;79.88;95579.84;1786904;80;20988;-59
2021/08/18 00:12:06;;;;;;;7.80;6.78;;;;;;;17.28;79.68;95577.22;1787216;80;21034;-59
2021/08/18 00:14:34;;;;;;;8.45;6.67;;;;;;;17.34;79.53;95575.63;1787218;80;20975;-59
2021/08/18 00:17:02;;;;;;;7.87;7.00;;;;;;;17.42;79.36;95572.13;1787407;80;21026;-59
2021/08/18 00:19:28;;;;;;;8.10;6.40;;;;;;;17.42;78.64;95572.13;1786776;80;21035;-59
2021/08/18 00:21:55;;;;;;;9.00;6.97;;;;;;;17.36;78.58;95580.42;1787182;80;21030;-59
2021/08/18 00:24:21;;;;;;;8.03;7.05;;;;;;;17.27;78.94;95575.49;1787105;80;21050;-59
2021/08/18 00:26:48;;;;;;;7.75;6.70;;;;;;;17.24;79.28;95579.17;1786959;80;21022;-59
2021/08/18 00:29:14;;;;;;;8.35;7.35;;;;;;;17.20;79.88;95584.23;1787181;80;21046;-59
2021/08/18 00:31:41;;;;;;;9.98;7.75;;;;;;;17.22;79.30;95573.50;1787013;80;21035;-59
2021/08/18 00:34:07;;;;;;;9.70;5.95;;;;;;;17.22;79.30;95573.50;1786963;80;20995;-59
2021/08/18 00:36:34;;;;;;;10.18;7.30;;;;;;;17.23;79.51;95581.89;1787113;80;21091;-59
2021/08/18 00:39:01;;;;;;;9.33;7.50;;;;;;;17.16;79.82;95585.76;1787152;80;21114;-59
2021/08/18 00:41:28;;;;;;;7.83;7.03;;;;;;;17.18;79.78;95591.42;1787131;80;20967;-59
2021/08/18 00:43:54;;;;;;;9.75;6.42;;;;;;;17.09;79.62;95590.05;1787165;80;21471;-59
2021/08/18 00:46:21;;;;;;;9.03;6.85;;;;;;;17.09;79.62;95590.05;1787315;80;20991;-59
2021/08/18 00:48:47;;;;;;;9.00;6.95;;;;;;;17.06;80.78;95590.19;1786615;80;21093;-59
2021/08/18 00:51:14;;;;;;;7.60;6.80;;;;;;;17.11;80.13;95591.77;1787196;80;20983;-59
2021/08/18 00:53:41;;;;;;;8.85;7.25;;;;;;;17.14;80.22;95587.18;1786724;80;21153;-59
2021/08/18 00:56:13;;;;;;;8.88;7.75;;;;;;;17.17;80.18;95587.03;1786977;80;20956;-59
2021/08/18 00:58:39;;;;;;;10.65;7.40;;;;;;;17.21;79.85;95590.42;1787518;80;20991;-59
2021/08/18 01:01:06;;;;;;;8.45;7.05;;;;;;;17.22;79.61;95590.84;1786733;80;21018;-59
2021/08/18 01:03:33;;;;;;;10.88;7.45;;;;;;;17.20;79.72;95587.37;1786799;80;21115;-60
2021/08/18 01:06:01;;;;;;;6.72;6.00;;;;;;;17.15;79.15;95590.23;1787241;80;21015;-59
2021/08/18 01:08:28;;;;;;;7.17;5.95;;;;;;;17.11;79.12;95581.99;1787043;80;21034;-59
2021/08/18 01:10:58;;;;;;;6.95;6.25;;;;;;;17.08;79.11;95584.33;1787336;80;20960;-59
2021/08/18 01:13:28;;;;;;;9.65;6.40;;;;;;;17.03;79.48;95577.00;1787184;80;21438;-59
2021/08/18 01:15:54;;;;;;;7.67;5.92;;;;;;;17.00;79.59;95575.78;1787077;80;21047;-59
2021/08/18 01:18:21;;;;;;;7.33;6.17;;;;;;;17.02;79.67;95580.58;1786957;80;21054;-59
2021/08/18 01:20:47;;;;;;;7.75;6.30;;;;;;;16.86;79.77;95584.87;1787013;80;21042;-59
2021/08/18 01:23:15;;;;;;;8.05;5.90;;;;;;;16.86;79.77;95584.87;1786938;80;21496;-59
2021/08/18 01:25:45;;;;;;;6.12;5.17;;;;;;;16.71;80.39;95573.03;1787063;80;21078;-59
2021/08/18 01:28:13;;;;;;;6.92;5.80;;;;;;;16.71;80.39;95573.03;1787048;80;21070;-60
2021/08/18 01:30:41;;;;;;;6.65;5.97;;;;;;;16.59;80.09;95572.22;1787270;80;21490;-59
2021/08/18 01:33:14;;;;;;;7.83;6.20;;;;;;;16.51;80.64;95571.69;1787116;80;20967;-59
2021/08/18 01:35:45;;;;;;;9.55;6.08;;;;;;;16.51;80.91;95565.03;1787170;80;21054;-59
2021/08/18 01:38:14;;;;;;;7.97;5.87;;;;;;;16.39;81.43;95567.27;1786973;80;21003;-59
2021/08/18 01:40:47;;;;;;;7.05;6.35;;;;;;;16.36;81.07;95563.41;1787141;80;21031;-59
2021/08/18 01:43:13;;;;;;;7.47;6.08;;;;;;;16.38;80.85;95558.89;1787099;80;21017;-59
2021/08/18 01:45:44;;;;;;;9.93;5.87;;;;;;;16.33;80.90;95562.20;1786762;80;21610;-59
2021/08/18 01:48:20;;;;;;;8.05;6.97;;;;;;;16.29;81.11;95568.58;1787097;80;21041;-59
2021/08/18 01:50:49;;;;;;;8.18;5.97;;;;;;;16.26;81.15;95566.05;1786764;80;21007;-59
2021/08/18 01:53:24;;;;;;;8.05;5.90;;;;;;;16.14;81.15;95563.89;1786924;80;21039;-59
2021/08/18 01:55:51;;;;;;;9.10;5.60;;;;;;;16.14;81.15;95563.89;1786763;80;21138;-59
2021/08/18 01:58:18;;;;;;;7.05;6.33;;;;;;;16.09;82.28;95566.73;1786941;80;21516;-59
2021/08/18 02:00:44;;;;;;;7.33;5.85;;;;;;;16.05;82.27;95562.92;1787218;80;21019;-59
2021/08/18 02:03:11;;;;;;;6.70;5.20;;;;;;;16.04;81.82;95566.05;1787161;80;20991;-59
2021/08/18 02:05:38;;;;;;;6.97;4.97;;;;;;;15.98;81.52;95559.19;1786861;80;21050;-59
2021/08/18 02:08:05;;;;;;;8.00;5.47;;;;;;;15.98;81.43;95557.00;1787146;80;21030;-59
2021/08/18 02:10:32;;;;;;;7.03;5.45;;;;;;;16.01;81.35;95564.38;1787008;80;21544;-59
2021/08/18 02:12:59;;;;;;;8.75;6.00;;;;;;;15.95;80.97;95555.33;1786917;80;21019;-59
2021/08/18 02:15:30;;;;;;;7.00;5.78;;;;;;;15.88;81.00;95553.84;1787343;80;21007;-59
2021/08/18 02:18:00;;;;;;;6.83;5.20;;;;;;;15.80;81.75;95547.96;1787002;80;21484;-59
2021/08/18 02:20:31;;;;;;;9.48;5.45;;;;;;;15.73;82.18;95551.79;1786896;80;21015;-59
2021/08/18 02:22:59;;;;;;;10.60;5.78;;;;;;;15.75;81.82;95548.61;1787257;80;20982;-59
2021/08/18 02:25:26;;;;;;;8.20;6.22;;;;;;;15.82;81.90;95549.21;1786927;80;21076;-59
2021/08/18 02:27:54;;;;;;;5.85;5.08;;;;;;;15.85;81.88;95545.09;1787404;80;21444;-59
2021/08/18 02:30:24;;;;;;;8.18;5.67;;;;;;;15.89;82.06;95546.24;1787304;80;20983;-59
2021/08/18 02:32:51;;;;;;;7.10;5.53;;;;;;;15.94;81.82;95548.72;1787305;80;21575;-59
2021/08/18 02:35:18;;;;;;;8.05;6.50;;;;;;;16.06;81.54;95551.36;1787172;80;21050;-59
2021/08/18 02:37:46;;;;;;;7.28;5.65;;;;;;;16.01;81.20;95543.56;1787134;80;21489;-58
2021/08/18 02:40:21;;;;;;;6.37;5.50;;;;;;;16.08;81.55;95546.85;1786921;80;21055;-59
2021/08/18 02:42:52;;;;;;;8.48;6.42;;;;;;;16.06;81.55;95544.71;1787154;80;21015;-59
2021/08/18 02:45:20;;;;;;;8.43;5.85;;;;;;;16.17;81.39;95547.78;1787316;80;21495;-59
2021/08/18 02:47:48;;;;;;;6.97;5.00;;;;;;;16.18;81.20;95553.53;1787256;80;21011;-59
2021/08/18 02:50:18;;;;;;;7.75;4.83;;;;;;;16.22;81.04;95548.45;1787045;80;21008;-59
2021/08/18 02:52:44;;;;;;;5.10;3.67;;;;;;;16.19;80.60;95544.59;1788845;80;21512;-59
2021/08/18 02:55:12;;;;;;;7.25;5.10;;;;;;;16.07;80.34;95541.11;1795518;80;21030;-59
2021/08/18 02:57:39;;;;;;;5.47;4.12;;;;;;;16.05;81.17;95538.97;1795608;80;21041;-59
2021/08/18 03:00:08;;;;;;;4.83;4.03;;;;;;;16.19;81.25;95540.61;1795240;80;21074;-59
2021/08/18 03:02:35;;;;;;;5.42;4.50;;;;;;;16.27;80.79;95541.14;1795658;80;20975;-59
2021/08/18 03:05:02;;;;;;;4.80;4.20;;;;;;;16.32;80.53;95543.15;1795079;80;21552;-59
2021/08/18 03:07:29;;;;;;;8.45;5.95;;;;;;;16.24;80.96;95537.28;1795520;80;20994;-59
2021/08/18 03:09:55;;;;;;;5.75;4.12;;;;;;;16.23;81.27;95538.23;1795585;80;21523;-59
2021/08/18 03:12:22;;;;;;;5.95;4.20;;;;;;;16.19;80.92;95536.14;1795534;80;21018;-59
2021/08/18 03:14:48;;;;;;;7.12;6.05;;;;;;;16.21;81.18;95540.08;1795414;80;21058;-59
2021/08/18 03:17:15;;;;;;;8.73;6.70;;;;;;;16.32;81.36;95535.63;1795504;80;20987;-59
2021/08/18 03:19:41;;;;;;;9.73;7.20;;;;;;;16.39;80.88;95539.30;1795351;80;20998;-59
2021/08/18 03:22:08;;;;;;;9.88;7.33;;;;;;;16.39;80.59;95543.77;1795413;80;20967;-59
2021/08/18 03:24:35;;;;;;;11.68;8.08;;;;;;;16.35;80.56;95543.48;1795588;80;21056;-59
2021/08/18 03:27:01;;;;;;;13.20;7.83;;;;;;;16.33;80.90;95536.02;1795556;80;21027;-59
2021/08/18 03:29:28;;;;;;;11.10;7.92;;;;;;;16.30;81.02;95543.67;1795563;80;21429;-59
2021/08/18 03:31:54;;;;;;;11.40;8.70;;;;;;;16.33;80.79;95542.67;1795688;80;20982;-59
2021/08/18 03:34:21;;;;;;;12.00;7.60;;;;;;;16.24;81.00;95537.28;1795855;80;21579;-59
2021/08/18 03:36:48;;;;;;;12.43;9.05;;;;;;;16.18;81.24;95541.55;1795204;80;21022;-59
2021/08/18 03:39:15;;;;;;;10.13;7.95;;;;;;;16.13;81.20;95536.88;1795561;80;21023;-59
2021/08/18 03:41:41;;;;;;;10.72;8.70;;;;;;;16.12;81.38;95536.45;1795511;80;21033;-59
2021/08/18 03:44:08;;;;;;;11.78;8.70;;;;;;;16.13;81.40;95542.20;1795335;80;21475;-59
2021/08/18 03:46:34;;;;;;;11.20;8.45;;;;;;;16.14;81.36;95543.92;1795595;80;21021;-59
2021/08/18 03:49:01;;;;;;;10.05;7.33;;;;;;;16.18;81.30;95554.39;1795194;80;21110;-59
2021/08/18 03:51:27;;;;;;;10.35;8.18;;;;;;;16.22;81.42;95555.11;1795361;80;20983;-59
2021/08/18 03:53:54;;;;;;;10.80;7.20;;;;;;;16.23;81.47;95550.21;1790663;80;21110;-59
2021/08/18 03:56:20;;;;;;;11.88;8.15;;;;;;;16.25;81.26;95550.98;1787218;80;20979;-59
2021/08/18 03:58:47;;;;;;;11.83;8.55;;;;;;;16.21;81.48;95545.41;1786832;80;21070;-59
2021/08/18 04:01:13;;;;;;;11.65;8.50;;;;;;;16.26;81.38;95551.41;1787226;80;21030;-59
2021/08/18 04:03:40;;;;;;;13.60;8.18;;;;;;;16.25;81.01;95552.31;1787021;80;21388;-59
2021/08/18 04:06:06;;;;;;;11.65;7.87;;;;;;;16.25;81.01;95552.31;1787125;80;20982;-59
2021/08/18 04:08:33;;;;;;;13.85;8.88;;;;;;;16.28;81.20;95540.23;1786850;80;20979;-59
2021/08/18 04:10:59;;;;;;;11.45;8.65;;;;;;;16.33;80.98;95542.23;1787194;80;21452;-59
2021/08/18 04:13:26;;;;;;;11.15;8.30;;;;;;;16.34;80.93;95541.77;1786812;80;21070;-59
2021/08/18 04:15:52;;;;;;;12.82;8.80;;;;;;;16.37;80.83;95539.83;1787445;80;20955;-59
2021/08/18 04:18:18;;;;;;;12.90;8.28;;;;;;;16.43;80.67;95547.58;1786745;80;21118;-59
2021/08/18 04:20:45;;;;;;;12.73;8.08;;;;;;;16.35;80.42;95547.00;1787130;80;21018;-59
2021/08/18 04:23:12;;;;;;;13.10;7.72;;;;;;;16.37;80.83;95553.61;1786970;80;21098;-59
2021/08/18 04:25:39;;;;;;;14.53;7.72;;;;;;;16.47;80.94;95555.43;1786980;80;21054;-59
2021/08/18 04:28:05;;;;;;;11.08;7.17;;;;;;;16.59;80.42;95556.24;1787085;80;21470;-59
2021/08/18 04:30:32;;;;;;;8.93;6.80;;;;;;;16.66;80.23;95554.58;1787103;80;20987;-59
2021/08/18 04:32:58;;;;;;;10.08;6.65;;;;;;;16.71;79.67;95550.86;1786739;80;21015;-59
2021/08/18 04:35:25;;;;;;;10.25;6.08;;;;;;;16.76;79.62;95558.19;1787106;80;21026;-59
2021/08/18 04:37:52;;;;;;;16.20;5.58;;;;;;;16.75;79.22;95561.30;1786917;80;21019;-59
2021/08/18 04:40:21;;;;;;;8.23;5.10;;;;;;;16.73;79.10;95555.63;1786884;80;21573;-59
2021/08/18 04:42:50;;;;;;;7.40;5.20;;;;;;;16.73;79.10;95555.63;1787266;80;20983;-59
2021/08/18 04:45:17;;;;;;;5.78;4.58;;;;;;;16.72;78.68;95557.44;1787267;80;21003;-59
2021/08/18 04:47:44;;;;;;;12.90;5.17;;;;;;;16.65;78.70;95569.28;1786789;80;21592;-59
2021/08/18 04:50:14;;;;;;;9.48;5.42;;;;;;;16.53;78.61;95557.81;1786832;80;20999;-59
2021/08/18 04:52:41;;;;;;;9.48;4.92;;;;;;;16.53;78.61;95557.81;1787070;80;20967;-59
2021/08/18 04:55:09;;;;;;;13.55;5.22;;;;;;;16.53;78.79;95568.47;1787019;80;21019;-59
2021/08/18 04:57:36;;;;;;;10.13;5.17;;;;;;;16.45;79.06;95555.48;1787150;80;21007;-59
2021/08/18 05:00:05;;;;;;;11.75;5.70;;;;;;;16.32;79.21;95553.80;1787078;80;21050;-59
2021/08/18 05:02:36;;;;;;;8.10;5.22;;;;;;;16.35;79.46;95576.30;1787178;80;21015;-59
2021/08/18 05:05:05;;;;;;;15.95;5.53;;;;;;;16.30;79.86;95578.75;1787082;80;20998;-59
2021/08/18 05:07:31;;;;;;;10.30;5.53;;;;;;;16.27;79.59;95573.09;1787025;80;21014;-59
2021/08/18 05:09:58;;;;;;;10.35;6.00;;;;;;;16.25;79.49;95572.28;1787168;80;21026;-59
2021/08/18 05:12:25;;;;;;;12.98;5.87;;;;;;;16.26;79.56;95568.71;1787124;80;20991;-59
2021/08/18 05:14:52;;;;;;;8.78;6.33;;;;;;;16.23;79.50;95567.05;1787170;80;21037;-58
2021/08/18 05:17:18;;;;;;;10.60;5.85;;;;;;;16.29;79.48;95575.23;1787143;80;21011;-59
2021/08/18 05:19:44;;;;;;;8.23;4.62;;;;;;;16.35;79.50;95588.28;1787158;80;20998;-59
2021/08/18 05:22:11;;;;;;;10.60;5.20;;;;;;;16.36;79.71;95582.05;1786915;80;21026;-59
2021/08/18 05:24:38;;;;;;;23.38;5.33;;;;;;;16.41;80.34;95587.19;1787030;80;21062;-59
2021/08/18 05:27:05;;;;;;;6.53;3.87;;;;;;;16.49;79.71;95589.52;1786915;80;21079;-58
2021/08/18 05:29:31;;;;;;;7.00;3.47;;;;;;;16.60;79.46;95584.59;1787093;80;21003;-58
2021/08/18 05:31:58;;;;;;;7.42;3.27;;;;;;;16.68;79.21;95579.80;1787131;80;21006;-58
2021/08/18 05:34:24;;;;;;;5.03;3.40;;;;;;;16.86;77.85;95573.73;1786997;80;20999;-58
2021/08/18 05:36:51;;;;;;;3.67;3.12;;;;;;;16.86;77.85;95573.73;1786567;80;21103;-59
2021/08/18 05:39:18;;;;;;;4.75;3.37;;;;;;;16.97;77.78;95575.06;1787096;80;21027;-58
2021/08/18 05:41:44;;;;;;;4.10;2.80;;;;;;;17.01;77.84;95573.97;1786989;80;21002;-59
2021/08/18 05:44:10;;;;;;;3.87;2.40;;;;;;;17.08;76.86;95567.44;1787176;80;21433;-59
2021/08/18 05:46:37;;;;;;;4.97;3.35;;;;;;;17.08;76.85;95567.44;1787221;80;21074;-59
2021/08/18 05:49:03;;;;;;;8.65;3.72;;;;;;;17.10;76.60;95573.58;1787071;80;20975;-59
2021/08/18 05:51:30;;;;;;;8.63;3.83;;;;;;;17.17;76.68;95579.52;1787082;80;20971;-59
2021/08/18 05:53:56;;;;;;;6.75;3.35;;;;;;;17.16;76.68;95578.66;1789793;80;21030;-59
2021/08/18 05:56:23;;;;;;;8.88;3.60;;;;;;;17.24;76.95;95575.17;1795528;80;20963;-59
2021/08/18 05:58:49;;;;;;;6.95;3.80;;;;;;;17.30;76.82;95572.20;1795333;80;21141;-59
2021/08/18 06:01:16;;;;;;;11.12;4.00;;;;;;;17.34;76.06;95580.06;1795683;80;21417;-59
2021/08/18 06:03:44;;;;;;;6.70;3.95;;;;;;;17.32;75.81;95576.16;1795165;80;21083;-59
2021/08/18 06:06:12;;;;;;;4.83;3.58;;;;;;;17.35;75.68;95576.48;1795544;80;21493;-59
2021/08/18 06:08:39;;;;;;;11.08;4.20;;;;;;;17.37;75.56;95570.14;1795373;80;21079;-59
2021/08/18 06:11:05;;;;;;;11.33;4.35;;;;;;;17.39;75.34;95572.28;1795699;80;21472;-59
2021/08/18 06:13:32;;;;;;;9.20;4.37;;;;;;;17.42;75.22;95581.47;1795741;80;20974;-59
2021/08/18 06:15:58;;;;;;;8.00;3.60;;;;;;;17.45;75.12;95577.79;1795503;80;21074;-59
2021/08/18 06:18:24;;;;;;;6.97;3.58;;;;;;;17.48;74.90;95574.97;1795037;80;20983;-59
2021/08/18 06:20:51;;;;;;;8.20;3.12;;;;;;;17.47;75.02;95569.25;1795324;80;21429;-59
2021/08/18 06:23:21;;;;;;;8.55;3.12;;;;;;;17.47;75.16;95575.92;1795283;80;21011;-59
2021/08/18 06:25:47;;;;;;;7.33;3.52;;;;;;;17.48;75.09;95579.83;1795363;80;21037;-59
2021/08/18 06:28:13;;;;;;;4.28;3.35;;;;;;;17.44;75.26;95576.93;1795328;80;21046;-59
2021/08/18 06:30:40;;;;;;;9.10;3.90;;;;;;;17.42;75.54;95569.94;1795733;80;21018;-59
2021/08/18 06:33:07;;;;;;;5.80;4.17;;;;;;;17.42;75.49;95578.80;1795223;80;20987;-59
2021/08/18 06:35:34;;;;;;;5.85;4.33;;;;;;;17.48;75.24;95581.64;1795533;80;21500;-59
2021/08/18 06:38:00;;;;;;;5.83;4.08;;;;;;;17.49;75.00;95582.92;1795264;80;20967;-58
2021/08/18 06:40:27;;;;;;;5.12;3.55;;;;;;;17.51;75.02;95578.83;1795777;80;21108;-59
2021/08/18 06:42:53;;;;;;;4.78;3.22;;;;;;;17.57;74.74;95571.03;1795718;80;21038;-59
2021/08/18 06:45:21;;;;;;;5.22;3.60;;;;;;;17.61;74.52;95565.45;1795506;80;20999;-59
2021/08/18 06:47:47;;;;;;;4.58;3.72;;;;;;;17.69;74.09;95559.79;1795486;80;21489;-59
2021/08/18 06:50:14;;;;;;;7.75;3.77;;;;;;;17.77;73.97;95567.44;1795572;80;21014;-59
2021/08/18 06:52:41;;;;;;;8.63;3.05;;;;;;;17.86;73.62;95565.20;1795772;80;21018;-59
2021/08/18 06:55:10;;;;;;;5.70;3.40;;;;;;;17.96;73.30;95564.30;1789030;80;20972;-59
2021/08/18 06:57:37;;;;;;;11.30;3.60;;;;;;;18.08;72.75;95556.17;1787302;80;20976;-59
2021/08/18 07:00:06;;;;;;;8.38;3.20;;;;;;;18.21;72.33;95577.80;1787001;80;21011;-59
2021/08/18 07:02:32;;;;;;;6.10;3.30;;;;;;;18.32;72.01;95575.45;1787279;80;21019;-59
2021/08/18 07:05:05;;;;;;;8.30;3.55;;;;;;;18.41;71.64;95566.99;1787242;80;20999;-59
2021/08/18 07:07:32;;;;;;;4.55;3.65;;;;;;;18.56;71.38;95567.55;1786928;80;20975;-59
2021/08/18 07:09:58;;;;;;;5.83;3.65;;;;;;;18.62;70.24;95569.52;1787248;80;20991;-59
2021/08/18 07:12:25;;;;;;;4.80;3.80;;;;;;;18.65;69.85;95574.27;1786991;80;21011;-59
2021/08/18 07:14:51;;;;;;;7.25;4.12;;;;;;;18.68;69.39;95570.56;1787242;80;20983;-59
2021/08/18 07:17:18;;;;;;;5.42;3.70;;;;;;;18.68;68.88;95579.92;1787154;80;21504;-59
2021/08/18 07:19:44;;;;;;;5.20;3.75;;;;;;;18.68;68.75;95585.27;1787177;80;21523;-59
2021/08/18 07:22:11;;;;;;;6.55;3.67;;;;;;;18.69;68.60;95589.17;1786542;80;21082;-58
2021/08/18 07:24:37;;;;;;;4.60;3.45;;;;;;;18.70;68.70;95585.58;1787128;80;21042;-59
2021/08/18 07:27:04;;;;;;;7.55;3.60;;;;;;;18.72;68.64;95580.14;1786742;80;20987;-59
2021/08/18 07:29:31;;;;;;;7.45;3.45;;;;;;;18.66;68.03;95585.33;1787087;80;21003;-59
2021/08/18 07:31:58;;;;;;;9.45;3.37;;;;;;;18.66;67.90;95588.00;1786998;80;21086;-59
2021/08/18 07:34:24;;;;;;;4.55;3.35;;;;;;;18.59;67.44;95585.24;1787246;80;20983;-59
2021/08/18 07:36:51;;;;;;;10.82;3.35;;;;;;;18.62;67.07;95590.42;1786752;80;21035;-58
2021/08/18 07:39:18;;;;;;;8.15;3.70;;;;;;;18.63;66.43;95589.50;1787146;80;21591;-58
2021/08/18 07:41:45;;;;;;;10.58;2.87;;;;;;;18.65;65.99;95591.63;1786860;80;21015;-59
2021/08/18 07:44:11;;;;;;;8.60;3.17;;;;;;;18.63;66.21;95591.31;1786894;80;21110;-59
2021/08/18 07:46:38;;;;;;;12.03;3.90;;;;;;;18.64;66.17;95592.55;1787103;80;21023;-59
2021/08/18 07:49:04;;;;;;;5.03;3.05;;;;;;;18.69;65.98;95595.86;1786892;80;20979;-59
2021/08/18 07:51:31;;;;;;;5.08;3.27;;;;;;;18.72;65.75;95597.52;1786982;80;21027;-59
2021/08/18 07:53:57;;;;;;;7.28;3.40;;;;;;;18.75;65.41;95604.06;1788133;80;21528;-59
2021/08/18 07:56:23;;;;;;;7.08;3.65;;;;;;;18.77;64.91;95603.52;1795138;80;21019;-58
2021/08/18 07:58:50;;;;;;;9.20;3.67;;;;;;;18.78;64.61;95616.82;1795147;80;21517;-58
2021/08/18 08:01:16;;;;;;;8.33;3.65;;;;;;;18.69;64.38;95612.38;1795475;80;20983;-58
2021/08/18 08:03:43;;;;;;;5.83;3.55;;;;;;;18.68;65.20;95622.20;1794936;80;21014;-58
2021/08/18 08:06:09;;;;;;;5.05;3.72;;;;;;;18.71;65.39;95619.84;1795537;80;21011;-58
2021/08/18 08:08:35;;;;;;;6.62;4.05;;;;;;;18.69;65.13;95631.94;1795121;80;21512;-59
2021/08/18 08:11:02;;;;;;;4.65;3.30;;;;;;;18.68;65.60;95628.03;1795059;80;21025;-59
2021/08/18 08:13:28;;;;;;;7.45;4.12;;;;;;;18.58;66.16;95620.45;1795552;80;20967;-58
2021/08/18 08:15:55;;;;;;;7.72;3.80;;;;;;;18.60;66.34;95627.94;1795189;80;21011;-59
2021/08/18 08:18:21;;;;;;;6.97;4.00;;;;;;;18.63;66.64;95629.59;1795439;80;21547;-58
2021/08/18 08:20:48;;;;;;;6.33;3.60;;;;;;;18.62;66.14;95621.16;1795525;80;21009;-59
2021/08/18 08:23:15;;;;;;;14.93;4.62;;;;;;;18.63;66.13;95620.23;1794934;80;21047;-59
2021/08/18 08:25:42;;;;;;;7.53;4.10;;;;;;;18.57;66.57;95612.50;1795466;80;21002;-58
2021/08/18 08:28:08;;;;;;;10.90;3.87;;;;;;;18.56;66.69;95618.33;1795503;80;21476;-58
2021/08/18 08:30:35;;;;;;;7.75;4.22;;;;;;;18.52;66.63;95610.09;1795682;80;20978;-58
2021/08/18 08:33:02;;;;;;;5.37;4.10;;;;;;;18.45;66.06;95603.31;1795147;80;21508;-58
2021/08/18 08:35:29;;;;;;;5.85;3.87;;;;;;;18.43;65.86;95599.84;1795660;80;20982;-58
2021/08/18 08:37:56;;;;;;;6.20;3.92;;;;;;;18.37;65.92;95598.83;1794915;80;21095;-58
2021/08/18 08:40:23;;;;;;;7.10;4.55;;;;;;;18.30;66.25;95604.06;1795571;80;21536;-58
2021/08/18 08:42:51;;;;;;;7.33;4.40;;;;;;;18.30;67.18;95600.92;1795120;80;21106;-58
2021/08/18 08:45:18;;;;;;;13.55;4.70;;;;;;;18.28;67.33;95609.95;1795239;80;20974;-58
2021/08/18 08:47:44;;;;;;;12.80;4.58;;;;;;;18.29;66.99;95608.52;1795526;80;20994;-59
2021/08/18 08:50:14;;;;;;;8.68;4.78;;;;;;;18.30;67.49;95618.76;1795531;80;21452;-58
2021/08/18 08:52:40;;;;;;;8.38;4.58;;;;;;;18.35;67.26;95611.38;1795194;80;21074;-58
2021/08/18 08:55:08;;;;;;;7.80;4.95;;;;;;;18.40;66.33;95615.17;1791229;80;20983;-59
2021/08/18 08:57:51;;;;;;;10.15;5.20;;;;;;;18.44;66.70;95613.59;1787140;80;21074;-58
2021/08/18 09:00:19;;;;;;;;;;;;;;;18.49;65.93;95612.03;1789745;80;21018;-59
2021/08/18 09:02:47;;;;;;;8.15;4.92;;;;;;;18.54;67.24;95612.19;1756069;81;20094;-58
2021/08/18 09:05:27;;;;;;;9.35;5.33;;;;;;;18.68;65.87;95617.34;1786355;80;21023;-59
2021/08/18 09:07:59;;;;;;;10.25;5.05;;;;;;;18.80;65.27;95612.75;1786708;80;21023;-58
2021/08/18 09:10:27;;;;;;;10.85;6.20;;;;;;;18.83;64.46;95603.70;1787085;80;21019;-58
2021/08/18 09:13:11;;;;;;;10.13;5.10;;;;;;;18.93;64.10;95599.14;1787162;80;20987;-59
2021/08/18 09:15:38;;;;;;;12.93;6.08;;;;;;;19.06;64.57;95602.05;1784094;80;21019;-58
2021/08/18 09:18:05;;;;;;;7.17;4.78;;;;;;;19.24;63.59;95596.20;1787137;80;21102;-59
2021/08/18 09:20:33;;;;;;;6.45;4.95;;;;;;;19.34;63.90;95598.78;1787024;80;21042;-59
2021/08/18 09:23:03;;;;;;;6.28;4.92;;;;;;;19.41;62.38;95598.84;1786942;80;20990;-59
2021/08/18 09:25:41;;;;;;;7.75;5.75;;;;;;;19.51;62.28;95594.36;1787059;80;21067;-59
2021/08/18 09:28:13;;;;;;;10.05;8.28;;;;;;;19.60;62.64;95586.66;1786886;80;21113;-59
2021/08/18 09:30:46;;;;;;;7.50;5.93;;;;;;;19.78;62.34;95588.87;1787750;80;21042;-59
2021/08/18 09:33:17;;;;;;;9.08;6.08;;;;;;;19.97;61.89;95587.36;1787009;80;20978;-59
2021/08/18 09:35:54;;;;;;;11.10;6.50;;;;;;;20.23;61.23;95592.58;1787063;80;21556;-59
2021/08/18 09:38:21;;;;;;;8.30;5.67;;;;;;;20.52;60.17;95590.06;1786874;80;21096;-59
2021/08/18 09:40:51;;;;;;;9.05;6.85;;;;;;;20.64;59.06;95596.09;1787141;80;21022;-59
2021/08/18 09:43:26;;;;;;;9.13;6.80;;;;;;;20.71;59.26;95596.13;1787030;80;21019;-59
2021/08/18 09:46:05;;;;;;;12.65;6.78;;;;;;;20.68;59.71;95592.26;1787062;80;21007;-59
2021/08/18 09:48:35;;;;;;;10.50;6.50;;;;;;;20.63;59.45;95595.69;1787016;80;21496;-59
2021/08/18 09:51:09;;;;;;;11.90;6.40;;;;;;;20.65;59.40;95599.15;1787004;80;21093;-59
2021/08/18 09:53:42;;;;;;;10.32;6.17;;;;;;;20.79;59.60;95591.66;1787068;80;20979;-59
2021/08/18 09:56:15;;;;;;;10.15;6.22;;;;;;;21.01;59.40;95591.70;1786694;80;21042;-59
2021/08/18 09:58:50;;;;;;;9.95;4.75;;;;;;;21.21;58.77;95588.67;1787139;80;21034;-59
2021/08/18 10:01:19;;;;;;;7.58;4.70;;;;;;;21.44;57.86;95587.78;1787008;80;21496;-59
2021/08/18 10:03:48;;;;;;;6.65;5.00;;;;;;;21.85;57.12;95583.88;1787261;80;21035;-59
2021/08/18 10:06:16;;;;;;;9.98;5.17;;;;;;;21.95;55.98;95580.13;1787150;80;21018;-59
2021/08/18 10:08:49;;;;;;;6.40;4.58;;;;;;;21.91;55.20;95582.13;1786822;80;21003;-59
2021/08/18 10:11:17;;;;;;;8.48;4.80;;;;;;;21.80;55.00;95581.47;1787312;80;20979;-59
2021/08/18 10:13:44;;;;;;;5.17;4.15;;;;;;;21.67;54.76;95582.33;1754996;80;20989;-59
2021/08/18 10:16:13;;;;;;;5.87;4.35;;;;;;;21.64;55.34;95579.84;1786761;80;21019;-59
2021/08/18 10:18:45;;;;;;;9.58;4.47;;;;;;;21.82;55.14;95578.67;1787006;80;21028;-59
2021/08/18 10:21:30;;;;;;;6.12;4.85;;;;;;;21.94;55.27;95573.01;1787297;80;21066;-59
2021/08/18 10:24:03;;;;;;;5.72;4.25;;;;;;;22.01;53.94;95578.38;1786917;80;21457;-59
2021/08/18 10:26:39;;;;;;;6.72;4.55;;;;;;;21.94;54.34;95581.92;1787147;80;20960;-59
2021/08/18 10:29:13;;;;;;;25.17;5.12;;;;;;;21.85;53.77;95578.50;1786764;80;21540;-59
2021/08/18 10:31:48;;;;;;;7.28;4.25;;;;;;;21.69;54.94;95581.27;1787111;80;21011;-59
2021/08/18 10:34:34;;;;;;;4.90;3.80;;;;;;;21.66;55.44;95585.98;1787113;80;21091;-59
2021/08/18 10:37:08;;;;;;;9.18;3.72;;;;;;;21.65;53.47;95574.88;1787114;80;21054;-59
2021/08/18 10:39:39;;;;;;;8.58;4.42;;;;;;;21.83;53.93;95575.05;1786888;80;21536;-59
2021/08/18 10:42:13;;;;;;;10.38;4.17;;;;;;;21.97;52.40;95578.18;1787114;80;21015;-59
2021/08/18 10:44:52;;;;;;;4.40;3.80;;;;;;;22.06;51.89;95575.41;1786799;80;21091;-59
2021/08/18 10:47:31;;;;;;;7.35;3.95;;;;;;;22.16;51.47;95573.84;1787213;80;21050;-59
2021/08/18 10:50:24;;;;;;;4.85;3.15;;;;;;;22.11;51.22;95577.31;1785830;80;20968;-59
2021/08/18 10:52:54;;;;;;;4.87;3.23;;;;;;;21.92;48.89;95575.78;1787309;80;20999;-59
2021/08/18 10:55:30;;;;;;;6.45;3.20;;;;;;;21.97;50.32;95578.18;1790142;80;21003;-59
2021/08/18 10:58:03;;;;;;;4.45;3.02;;;;;;;21.99;49.69;95569.55;1795659;80;21531;-59
2021/08/18 11:00:37;;;;;;;6.20;2.67;;;;;;;22.07;49.61;95570.39;1795643;80;21504;-59
2021/08/18 11:03:17;;;;;;;4.17;2.45;;;;;;;21.97;48.17;95580.41;1795083;80;21065;-59
2021/08/18 11:05:51;;;;;;;3.08;2.40;;;;;;;21.83;48.72;95575.91;1795201;80;21010;-59
2021/08/18 11:08:40;;;;;;;4.03;2.45;;;;;;;21.68;48.24;95578.70;1795408;80;21082;-59
2021/08/18 11:11:10;;;;;;;2.72;2.42;;;;;;;21.53;48.85;95577.83;1795242;80;21006;-59
2021/08/18 11:13:50;;;;;;;4.42;2.47;;;;;;;21.35;48.98;95585.17;1795293;80;20967;-59
2021/08/18 11:16:24;;;;;;;4.47;2.00;;;;;;;21.08;49.26;95585.02;1795554;80;20986;-59
2021/08/18 11:18:57;;;;;;;;;;;;;;;21.02;50.02;95584.91;1797772;80;21480;-59
2021/08/18 11:21:34;;;;;;;6.70;2.33;;;;;;;21.00;49.88;95581.45;1795579;80;20096;-59
2021/08/18 11:24:05;;;;;;;3.45;3.15;;;;;;;21.02;49.87;95584.91;1795355;80;21018;-59
2021/08/18 11:26:36;;;;;;;25.17;13.93;;;;;;;21.06;50.09;95589.61;1795383;80;20998;-59
2021/08/18 11:29:09;;;;;;;8.78;4.12;;;;;;;21.15;50.83;95591.75;1795703;80;21481;-59
2021/08/18 11:31:50;;;;;;;5.50;3.72;;;;;;;21.11;51.03;95585.69;1795603;80;20979;-59
2021/08/18 11:34:31;;;;;;;8.10;3.25;;;;;;;21.04;51.61;95580.78;1795255;80;21025;-59
2021/08/18 11:37:04;;;;;;;6.95;2.75;;;;;;;21.07;51.37;95580.63;1795529;80;20986;-59
2021/08/18 11:39:37;;;;;;;4.40;2.80;;;;;;;21.06;51.32;95586.44;1795306;80;21508;-59